createdAt,value
2022-11-22T00:00:52.148Z,4.05
2022-11-22T00:03:20.438Z,3.73
2022-11-22T00:05:48.367Z,3.89
2022-11-22T00:08:16.308Z,3.91
2022-11-22T00:10:44.425Z,3.88
2022-11-22T00:13:12.376Z,3.75
2022-11-22T00:15:40.230Z,3.83
2022-11-22T00:18:08.906Z,3.92
2022-11-22T00:20:36.796Z,3.86
2022-11-22T00:23:04.708Z,4.11
2022-11-22T00:25:32.898Z,3.72
2022-11-22T00:28:00.776Z,3.74
2022-11-22T00:30:28.646Z,3.77
2022-11-22T00:32:56.806Z,3.89
2022-11-22T00:35:24.594Z,3.80
2022-11-22T00:37:52.528Z,4.01
2022-11-22T00:40:20.769Z,3.76
2022-11-22T00:42:48.605Z,4.47
2022-11-22T00:45:16.496Z,4.41
2022-11-22T00:47:44.756Z,3.87
2022-11-22T00:50:12.666Z,3.68
2022-11-22T00:52:40.557Z,3.51
2022-11-22T00:55:08.720Z,3.48
2022-11-22T00:57:36.605Z,4.02
2022-11-22T01:00:06.596Z,3.84
2022-11-22T01:02:34.766Z,4.07
2022-11-22T01:05:02.626Z,4.15
2022-11-22T01:07:30.787Z,4.13
2022-11-22T01:09:59.047Z,3.59
2022-11-22T01:12:26.945Z,3.66
2022-11-22T01:14:54.906Z,3.75
2022-11-22T01:17:23.235Z,3.76
2022-11-22T01:19:51.036Z,3.69
2022-11-22T01:22:18.905Z,3.57
2022-11-22T01:24:47.006Z,3.70
2022-11-22T01:27:14.896Z,3.35
2022-11-22T01:29:42.863Z,3.39
2022-11-22T01:32:11.021Z,3.39
2022-11-22T01:34:38.825Z,3.77
2022-11-22T01:37:06.705Z,3.49
2022-11-22T01:39:34.897Z,3.94
2022-11-22T01:42:02.902Z,3.41
2022-11-22T01:44:32.858Z,3.84
2022-11-22T01:47:05.656Z,3.65
2022-11-22T01:49:41.105Z,3.64
2022-11-22T01:52:17.106Z,3.71
2022-11-22T01:54:48.755Z,3.48
2022-11-22T01:57:21.674Z,3.88
2022-11-22T01:59:54.395Z,3.38
2022-11-22T02:02:22.966Z,3.55
2022-11-22T02:04:52.458Z,3.55
2022-11-22T02:07:23.924Z,3.68
2022-11-22T02:09:53.238Z,3.25
2022-11-22T02:12:25.037Z,3.56
2022-11-22T02:14:53.844Z,3.59
2022-11-22T02:17:21.834Z,3.68
2022-11-22T02:19:50.324Z,3.72
2022-11-22T02:22:39.645Z,3.64
2022-11-22T02:25:39.410Z,3.41
2022-11-22T02:28:13.007Z,3.82
2022-11-22T02:30:41.716Z,3.63
2022-11-22T02:33:10.132Z,3.94
2022-11-22T02:35:37.956Z,3.66
2022-11-22T02:38:12.466Z,3.41
2022-11-22T02:40:44.246Z,3.70
2022-11-22T02:43:15.217Z,3.59
2022-11-22T02:45:43.806Z,3.81
2022-11-22T02:48:14.306Z,4.13
2022-11-22T02:50:42.686Z,4.17
2022-11-22T02:53:11.868Z,4.26
2022-11-22T02:55:40.025Z,4.27
2022-11-22T02:58:08.189Z,4.06
2022-11-22T03:00:37.751Z,4.28
2022-11-22T03:03:06.427Z,4.08
2022-11-22T03:05:34.307Z,3.97
2022-11-22T03:08:02.496Z,4.03
2022-11-22T03:10:30.297Z,4.19
2022-11-22T03:12:59.767Z,4.16
2022-11-22T03:15:28.006Z,4.37
2022-11-22T03:18:00.216Z,3.92
2022-11-22T03:20:28.735Z,4.23
2022-11-22T03:22:57.395Z,4.27
2022-11-22T03:25:25.276Z,4.40
2022-11-22T03:27:53.635Z,3.93
2022-11-22T03:30:21.450Z,3.74
2022-11-22T03:32:49.294Z,3.80
2022-11-22T03:35:17.520Z,3.91
2022-11-22T03:37:45.413Z,4.20
2022-11-22T03:40:13.846Z,4.23
2022-11-22T03:42:42.039Z,3.56
2022-11-22T03:45:10.330Z,4.18
2022-11-22T03:47:38.156Z,4.28
2022-11-22T03:50:06.896Z,4.09
2022-11-22T03:52:35.031Z,4.03
2022-11-22T03:55:03.097Z,4.23
2022-11-22T03:57:31.267Z,3.95
2022-11-22T03:59:59.095Z,4.22
2022-11-22T04:02:26.905Z,3.90
2022-11-22T04:04:55.166Z,3.78
2022-11-22T04:07:23.841Z,3.77
2022-11-22T04:09:51.689Z,4.02
2022-11-22T04:12:19.954Z,4.28
2022-11-22T04:15:06.457Z,4.30
2022-11-22T04:17:42.125Z,4.26
2022-11-22T04:20:38.106Z,4.15
2022-11-22T04:23:08.826Z,4.12
2022-11-22T04:25:38.796Z,4.01
2022-11-22T04:28:08.257Z,3.95
2022-11-22T04:30:54.657Z,4.13
2022-11-22T04:33:23.507Z,3.86
2022-11-22T04:35:51.989Z,3.58
2022-11-22T04:38:20.446Z,3.95
2022-11-22T04:40:48.729Z,3.85
2022-11-22T04:43:39.711Z,3.94
2022-11-22T04:46:08.408Z,3.46
2022-11-22T04:48:37.105Z,3.77
2022-11-22T04:51:24.263Z,3.56
2022-11-22T04:53:52.947Z,3.92
2022-11-22T04:56:20.936Z,3.54
2022-11-22T04:58:51.604Z,3.53
2022-11-22T05:01:19.950Z,3.77
2022-11-22T05:03:47.915Z,3.48
2022-11-22T05:06:15.747Z,3.38
2022-11-22T05:08:43.968Z,3.61
2022-11-22T05:11:12.137Z,3.31
2022-11-22T05:13:41.849Z,3.45
2022-11-22T05:16:12.067Z,3.17
2022-11-22T05:18:40.117Z,3.27
2022-11-22T05:21:12.867Z,3.04
2022-11-22T05:23:56.802Z,3.13
2022-11-22T05:26:25.948Z,3.23
2022-11-22T05:28:54.616Z,3.00
2022-11-22T05:31:23.755Z,3.13
2022-11-22T05:33:52.701Z,2.93
2022-11-22T05:36:21.766Z,2.72
2022-11-22T05:38:49.977Z,2.84
2022-11-22T05:41:18.207Z,2.78
2022-11-22T05:43:46.478Z,2.84
2022-11-22T05:46:26.476Z,3.03
2022-11-22T05:48:56.419Z,2.73
2022-11-22T05:51:33.585Z,3.04
2022-11-22T05:54:03.485Z,3.18
2022-11-22T05:56:31.478Z,2.78
2022-11-22T05:59:00.250Z,3.08
2022-11-22T06:01:28.445Z,3.22
2022-11-22T06:03:56.755Z,3.17
2022-11-22T06:06:24.672Z,3.06
2022-11-22T06:08:52.556Z,2.97
2022-11-22T06:11:22.976Z,2.68
2022-11-22T06:13:53.346Z,3.03
2022-11-22T06:16:21.930Z,3.17
2022-11-22T06:18:50.216Z,2.90
2022-11-22T06:21:20.717Z,2.88
2022-11-22T06:23:48.868Z,3.11
2022-11-22T06:26:18.748Z,2.91
2022-11-22T06:28:47.419Z,3.23
2022-11-22T06:31:20.707Z,2.92
2022-11-22T06:33:49.415Z,2.57
2022-11-22T06:36:19.656Z,2.73
2022-11-22T06:38:48.318Z,2.93
2022-11-22T06:41:19.188Z,2.88
2022-11-22T06:43:49.735Z,2.84
2022-11-22T06:46:23.368Z,2.94
2022-11-22T06:48:51.907Z,2.60
2022-11-22T06:51:28.048Z,2.91
2022-11-22T06:53:57.955Z,3.09
2022-11-22T06:56:27.457Z,2.80
2022-11-22T06:58:55.864Z,2.98
2022-11-22T07:01:28.875Z,3.01
2022-11-22T07:04:01.056Z,3.54
2022-11-22T07:06:31.643Z,2.81
2022-11-22T07:09:00.836Z,3.25
2022-11-22T07:11:30.569Z,2.99
2022-11-22T07:14:06.621Z,3.31
2022-11-22T07:16:36.437Z,2.87
2022-11-22T07:19:05.126Z,3.34
2022-11-22T07:21:32.928Z,3.45
2022-11-22T07:24:01.065Z,3.83
2022-11-22T07:26:29.306Z,3.46
2022-11-22T07:28:57.324Z,3.12
2022-11-22T07:31:26.314Z,3.45
2022-11-22T07:33:56.886Z,3.53
2022-11-22T07:36:25.189Z,3.48
2022-11-22T07:38:53.132Z,3.56
2022-11-22T07:41:22.415Z,3.23
2022-11-22T07:43:50.323Z,3.29
2022-11-22T07:46:33.479Z,3.45
2022-11-22T07:49:02.891Z,3.76
2022-11-22T07:51:31.369Z,3.56
2022-11-22T07:53:59.239Z,3.55
2022-11-22T07:56:27.570Z,3.61
2022-11-22T07:58:55.658Z,3.66
2022-11-22T08:01:23.982Z,3.35
2022-11-22T08:03:52.419Z,3.46
2022-11-22T08:06:20.426Z,3.98
2022-11-22T08:08:48.285Z,4.19
2022-11-22T08:11:16.695Z,4.31
2022-11-22T08:13:44.925Z,4.69
2022-11-22T08:16:15.685Z,4.23
2022-11-22T08:18:50.515Z,4.20
2022-11-22T08:21:19.304Z,4.28
2022-11-22T08:23:48.716Z,4.13
2022-11-22T08:26:17.957Z,4.34
2022-11-22T08:28:45.885Z,4.31
2022-11-22T08:31:16.470Z,4.26
2022-11-22T08:33:44.664Z,3.80
2022-11-22T08:36:12.842Z,3.66
2022-11-22T08:38:42.170Z,3.98
2022-11-22T08:41:10.775Z,3.87
2022-11-22T08:43:39.815Z,4.16
2022-11-22T08:46:08.476Z,4.28
2022-11-22T08:48:37.453Z,4.48
2022-11-22T08:51:07.763Z,4.28
2022-11-22T08:53:38.237Z,4.51
2022-11-22T08:56:07.692Z,4.23
2022-11-22T08:58:35.985Z,4.02
2022-11-22T09:01:06.509Z,4.30
2022-11-22T09:03:35.731Z,4.46
2022-11-22T09:09:22.238Z,3.97
2022-11-22T09:11:45.359Z,4.49
2022-11-22T09:14:13.778Z,4.77
2022-11-22T09:16:42.188Z,4.73
2022-11-22T09:19:10.215Z,4.64
2022-11-22T09:21:38.617Z,4.53
2022-11-22T09:24:07.140Z,4.57
2022-11-22T09:26:35.743Z,5.01
2022-11-22T09:29:04.107Z,5.15
2022-11-22T09:31:32.747Z,5.50
2022-11-22T09:34:00.995Z,5.26
2022-11-22T09:36:29.411Z,5.56
2022-11-22T09:38:57.540Z,5.29
2022-11-22T09:41:53.516Z,4.92
2022-11-22T09:44:45.069Z,5.26
2022-11-22T09:47:42.443Z,5.29
2022-11-22T09:50:24.149Z,6.03
2022-11-22T09:52:57.861Z,5.77
2022-11-22T09:55:35.885Z,5.34
2022-11-22T09:58:14.946Z,5.12
2022-11-22T10:00:56.125Z,5.31
2022-11-22T10:04:26.533Z,5.69
2022-11-22T10:07:23.937Z,5.74
2022-11-22T10:10:12.947Z,5.96
2022-11-22T10:12:47.975Z,6.03
2022-11-22T10:15:38.352Z,6.03
2022-11-22T10:18:18.304Z,6.71
2022-11-22T10:20:49.001Z,6.50
2022-11-22T10:23:21.224Z,6.37
2022-11-22T10:25:59.595Z,6.85
2022-11-22T10:28:47.424Z,7.66
2022-11-22T10:31:41.668Z,7.18
2022-11-22T10:34:38.332Z,7.10
2022-11-22T10:37:31.335Z,7.08
2022-11-22T10:40:08.989Z,7.00
2022-11-22T10:42:59.006Z,6.43
2022-11-22T10:45:31.905Z,6.62
2022-11-22T10:48:10.337Z,6.70
2022-11-22T10:50:58.768Z,7.14
2022-11-22T10:53:49.585Z,7.03
2022-11-22T10:56:50.888Z,7.34
2022-11-22T11:00:09.487Z,7.38
2022-11-22T11:03:05.345Z,7.71
2022-11-22T11:06:00.962Z,7.71
2022-11-22T11:11:47.614Z,8.42
2022-11-22T11:14:32.275Z,8.81
2022-11-22T11:17:01.654Z,8.05
2022-11-22T11:19:33.735Z,8.24
2022-11-22T11:22:08.234Z,8.52
2022-11-22T11:24:41.298Z,8.65
2022-11-22T11:27:16.584Z,8.43
2022-11-22T11:29:55.639Z,8.11
2022-11-22T11:32:24.015Z,8.39
2022-11-22T11:35:02.358Z,8.40
2022-11-22T11:37:36.964Z,7.68
2022-11-22T11:40:29.309Z,7.86
2022-11-22T11:43:22.781Z,7.34
2022-11-22T11:45:51.686Z,7.54
2022-11-22T11:48:28.518Z,7.89
2022-11-22T11:51:08.307Z,7.96
2022-11-22T11:53:38.574Z,8.42
2022-11-22T11:56:27.008Z,7.73
2022-11-22T11:58:57.406Z,7.69
2022-11-22T12:01:26.049Z,7.84
2022-11-22T12:03:57.939Z,7.59
2022-11-22T12:06:32.947Z,7.65
2022-11-22T12:09:02.329Z,7.95
2022-11-22T12:11:43.705Z,7.76
2022-11-22T12:14:22.491Z,8.04
2022-11-22T12:16:54.740Z,7.93
2022-11-22T12:19:35.415Z,8.20
2022-11-22T12:22:47.820Z,8.10
2022-11-22T12:25:36.085Z,8.14
2022-11-22T12:28:19.636Z,7.69
2022-11-22T12:31:02.645Z,7.87
2022-11-22T12:33:37.867Z,8.25
2022-11-22T12:36:13.355Z,7.87
2022-11-22T12:38:44.508Z,7.57
2022-11-22T12:41:17.378Z,7.51
2022-11-22T12:44:05.087Z,7.42
2022-11-22T12:46:40.822Z,7.16
2022-11-22T12:49:22.496Z,7.52
2022-11-22T12:51:55.707Z,7.30
2022-11-22T12:54:33.947Z,7.40
2022-11-22T12:57:08.154Z,7.34
2022-11-22T12:59:58.413Z,7.28
2022-11-22T13:02:34.566Z,7.15
2022-11-22T13:05:15.204Z,6.95
2022-11-22T13:07:57.636Z,7.18
2022-11-22T13:10:42.615Z,7.01
2022-11-22T13:13:34.744Z,6.30
2022-11-22T13:16:07.377Z,6.50
2022-11-22T13:18:43.869Z,6.60
2022-11-22T13:21:22.496Z,6.83
2022-11-22T13:24:14.124Z,6.86
2022-11-22T13:26:59.235Z,6.77
2022-11-22T13:29:29.246Z,6.56
2022-11-22T13:32:20.262Z,6.67
2022-11-22T13:35:04.579Z,6.48
2022-11-22T13:37:37.173Z,6.54
2022-11-22T13:40:17.475Z,6.05
2022-11-22T13:42:45.585Z,6.53
2022-11-22T13:45:25.007Z,6.28
2022-11-22T13:47:54.874Z,6.24
2022-11-22T13:50:50.045Z,6.05
2022-11-22T13:53:25.355Z,6.37
2022-11-22T13:55:54.735Z,6.23
2022-11-22T13:58:25.782Z,6.11
2022-11-22T14:00:55.660Z,6.08
2022-11-22T14:03:36.874Z,5.78
2022-11-22T14:06:34.478Z,5.90
2022-11-22T14:09:16.411Z,5.90
2022-11-22T14:11:58.463Z,5.86
2022-11-22T14:14:43.814Z,6.07
2022-11-22T14:17:42.208Z,6.13
2022-11-22T14:20:48.406Z,6.08
2022-11-22T14:23:41.036Z,5.78
2022-11-22T14:26:36.995Z,5.69
2022-11-22T14:29:52.154Z,5.99
2022-11-22T14:32:26.363Z,5.56
2022-11-22T14:35:03.492Z,5.52
2022-11-22T14:37:35.087Z,5.64
2022-11-22T14:40:03.186Z,5.69
2022-11-22T14:42:43.126Z,5.44
2022-11-22T14:45:10.974Z,5.66
2022-11-22T14:47:41.316Z,5.84
2022-11-22T14:50:34.265Z,5.95
2022-11-22T14:53:33.095Z,5.80
2022-11-22T14:56:12.865Z,5.78
2022-11-22T14:59:04.054Z,5.59
2022-11-22T15:01:56.709Z,5.47
2022-11-22T15:09:10.285Z,5.31
2022-11-22T15:09:16.122Z,5.13
2022-11-22T15:10:48.577Z,5.36
2022-11-22T15:13:55.754Z,5.69
2022-11-22T15:57:13.931Z,5.16
2022-11-22T15:59:47.098Z,5.33
2022-11-22T16:02:20.877Z,5.15
2022-11-22T16:06:06.817Z,5.37
2022-11-22T16:07:49.478Z,5.30
2022-11-22T16:10:20.035Z,5.40
2022-11-22T16:12:48.612Z,5.11
2022-11-22T16:15:36.560Z,5.08
2022-11-22T16:18:11.039Z,5.29
2022-11-22T16:20:43.568Z,5.06
2022-11-22T16:23:17.634Z,5.59
2022-11-22T16:25:50.648Z,5.54
2022-11-22T16:28:49.353Z,5.40
2022-11-22T16:31:21.843Z,5.11
2022-11-22T16:33:52.996Z,5.54
2022-11-22T16:36:22.075Z,5.11
2022-11-22T16:38:50.608Z,5.43
2022-11-22T16:41:26.746Z,5.20
2022-11-22T16:44:17.135Z,5.58
2022-11-22T16:46:45.194Z,5.36
2022-11-22T16:49:22.074Z,5.56
2022-11-22T16:51:50.677Z,5.59
2022-11-22T16:54:20.359Z,5.74
2022-11-22T16:56:48.553Z,5.59
2022-11-22T16:59:16.563Z,5.53
2022-11-22T17:01:45.044Z,5.54
2022-11-22T17:04:28.214Z,5.62
2022-11-22T17:06:56.604Z,5.47
2022-11-22T17:09:24.691Z,5.18
2022-11-22T17:11:52.691Z,5.42
2022-11-22T17:14:20.991Z,5.61
2022-11-22T17:16:48.903Z,5.27
2022-11-22T17:22:07.314Z,5.20
2022-11-22T17:24:35.468Z,5.25
2022-11-22T17:27:03.431Z,5.35
2022-11-22T17:32:20.474Z,5.43
2022-11-22T17:34:48.722Z,5.64
2022-11-22T17:37:16.627Z,5.48
2022-11-22T17:39:44.643Z,5.78
2022-11-22T17:42:12.955Z,5.44
2022-11-22T17:44:40.922Z,5.54
2022-11-22T17:47:09.174Z,5.62
2022-11-22T17:49:37.409Z,5.92
2022-11-22T17:52:05.264Z,5.80
2022-11-22T17:54:33.086Z,5.99
2022-11-22T17:57:01.325Z,5.99
2022-11-22T17:59:29.528Z,5.82
2022-11-22T18:01:58.754Z,5.65
2022-11-22T18:04:27.064Z,5.66
2022-11-22T18:06:54.953Z,5.74
2022-11-22T18:09:22.802Z,5.82
2022-11-22T18:11:51.050Z,5.71
2022-11-22T18:14:18.926Z,5.67
2022-11-22T18:16:46.831Z,5.56
2022-11-22T18:19:15.118Z,5.52
2022-11-22T18:21:42.965Z,5.97
2022-11-22T18:24:11.406Z,5.44
2022-11-22T18:26:40.959Z,5.64
2022-11-22T18:29:54.237Z,5.61
2022-11-22T18:32:01.305Z,5.73
2022-11-22T18:34:29.597Z,5.73
2022-11-22T18:37:02.075Z,5.60
2022-11-22T18:39:35.012Z,5.91
2022-11-22T18:42:04.485Z,5.99
2022-11-22T18:44:32.774Z,5.52
2022-11-22T18:47:00.785Z,5.61
2022-11-22T18:49:28.948Z,5.75
2022-11-22T18:51:57.458Z,5.58
2022-11-22T18:54:25.366Z,5.66
2022-11-22T18:56:53.288Z,5.83
2022-11-22T18:59:21.476Z,5.42
2022-11-22T19:01:49.385Z,5.69
2022-11-22T19:04:17.433Z,5.39
2022-11-22T19:06:46.053Z,5.56
2022-11-22T19:09:13.874Z,5.77
2022-11-22T19:11:41.743Z,5.64
2022-11-22T19:14:10.065Z,5.74
2022-11-22T19:16:37.912Z,5.84
2022-11-22T19:19:05.864Z,6.01
2022-11-22T19:21:34.134Z,5.83
2022-11-22T19:24:02.107Z,5.77
2022-11-22T19:26:30.105Z,6.08
2022-11-22T19:29:00.330Z,5.85
2022-11-22T19:31:29.730Z,5.73
2022-11-22T19:33:58.919Z,5.60
2022-11-22T19:36:33.428Z,5.44
2022-11-22T19:39:04.845Z,5.69
2022-11-22T19:41:33.477Z,6.07
2022-11-22T19:44:02.721Z,6.25
2022-11-22T19:46:32.362Z,6.01
2022-11-22T19:49:04.681Z,6.06
2022-11-22T19:51:33.814Z,5.95
2022-11-22T19:54:03.237Z,6.05
2022-11-22T19:56:35.487Z,5.82
2022-11-22T19:59:06.926Z,5.89
2022-11-22T20:01:35.603Z,6.05
2022-11-22T20:04:05.828Z,5.84
2022-11-22T20:06:35.304Z,5.96
2022-11-22T20:09:10.284Z,5.78
2022-11-22T20:11:40.276Z,5.89
2022-11-22T20:14:09.650Z,5.80
2022-11-22T20:16:41.876Z,5.84
2022-11-22T20:19:11.492Z,5.92
2022-11-22T20:21:40.232Z,6.02
2022-11-22T20:24:08.566Z,5.98
2022-11-22T20:26:36.836Z,5.81
2022-11-22T20:29:07.082Z,6.01
2022-11-22T20:31:36.317Z,6.03
2022-11-22T20:34:04.577Z,6.15
2022-11-22T20:36:34.294Z,6.13
2022-11-22T20:39:06.980Z,5.74
2022-11-22T20:41:39.155Z,6.06
2022-11-22T20:44:07.525Z,5.95
2022-11-22T20:46:37.354Z,5.78
2022-11-22T20:49:05.574Z,5.83
2022-11-22T20:51:36.105Z,5.70
2022-11-22T20:54:04.092Z,5.97
2022-11-22T20:56:32.807Z,5.95
2022-11-22T20:59:00.855Z,5.88
2022-11-22T21:01:31.335Z,5.77
2022-11-22T21:03:59.685Z,5.69
2022-11-22T21:06:28.465Z,5.81
2022-11-22T21:08:56.574Z,5.93
2022-11-22T21:11:27.636Z,5.99
2022-11-22T21:13:56.954Z,5.82
2022-11-22T21:16:27.387Z,5.79
2022-11-22T21:18:58.209Z,5.99
2022-11-22T21:21:26.788Z,5.76
2022-11-22T21:23:56.317Z,5.98
2022-11-22T21:26:25.185Z,5.82
2022-11-22T21:28:53.816Z,5.87
2022-11-22T21:31:22.556Z,5.80
2022-11-22T21:33:50.925Z,5.69
2022-11-22T21:36:23.316Z,5.98
2022-11-22T21:38:51.449Z,5.83
2022-11-22T21:41:39.301Z,5.73
2022-11-22T21:44:08.829Z,5.55
2022-11-22T21:46:37.134Z,5.75
2022-11-22T21:49:05.054Z,5.73
2022-11-22T21:51:33.163Z,5.87
2022-11-22T21:54:02.035Z,5.77
2022-11-22T21:56:30.356Z,5.78
2022-11-22T21:58:58.339Z,5.59
2022-11-22T22:01:26.718Z,5.66
2022-11-22T22:03:55.080Z,5.47
2022-11-22T22:06:22.975Z,5.63
2022-11-22T22:08:50.926Z,5.62
2022-11-22T22:11:19.125Z,5.88
2022-11-22T22:13:47.291Z,5.43
2022-11-22T22:16:23.624Z,5.38
2022-11-22T22:18:51.784Z,5.52
2022-11-22T22:21:20.136Z,5.37
2022-11-22T22:23:48.097Z,5.56
2022-11-22T22:26:17.157Z,5.55
2022-11-22T22:28:45.501Z,5.62
2022-11-22T22:31:21.940Z,5.72
2022-11-22T22:33:54.706Z,5.68
2022-11-22T22:36:23.957Z,5.54
2022-11-22T22:38:52.485Z,5.53
2022-11-22T22:41:20.328Z,5.37
2022-11-22T22:43:49.129Z,5.29
2022-11-22T22:46:21.487Z,5.49
2022-11-22T22:48:49.983Z,5.55
2022-11-22T22:51:28.992Z,5.45
2022-11-22T22:54:00.737Z,5.54
2022-11-22T22:56:30.597Z,5.58
2022-11-22T22:59:01.080Z,5.31
2022-11-22T23:01:31.187Z,5.39
2022-11-22T23:04:00.474Z,5.22
2022-11-22T23:06:30.481Z,5.42
2022-11-22T23:08:59.417Z,5.41
2022-11-22T23:11:48.586Z,5.19
2022-11-22T23:14:27.914Z,5.26
2022-11-22T23:16:58.221Z,5.44
2022-11-22T23:19:27.496Z,5.35
2022-11-22T23:21:55.595Z,5.62
2022-11-22T23:24:23.573Z,5.07
2022-11-22T23:26:51.806Z,5.24
2022-11-22T23:29:19.654Z,5.09
2022-11-22T23:31:47.565Z,5.05
2022-11-22T23:34:15.945Z,5.53
2022-11-22T23:36:43.802Z,5.53
2022-11-22T23:39:11.814Z,5.17
2022-11-22T23:41:39.975Z,5.61
2022-11-22T23:44:07.976Z,5.42
2022-11-22T23:46:35.847Z,5.13
2022-11-22T23:49:04.985Z,5.27
2022-11-22T23:51:33.909Z,5.29
2022-11-22T23:54:04.496Z,5.27
2022-11-22T23:56:34.634Z,5.31
2022-11-22T23:59:03.177Z,5.27
